createdAt,value
2023-02-05T00:01:35.745Z,2.90
2023-02-05T00:04:03.180Z,2.72
2023-02-05T00:06:30.417Z,2.83
2023-02-05T00:08:58.143Z,2.88
2023-02-05T00:11:26.052Z,3.65
2023-02-05T00:13:53.340Z,2.90
2023-02-05T00:16:21.440Z,2.42
2023-02-05T00:18:48.959Z,3.10
2023-02-05T00:21:17.799Z,2.97
2023-02-05T00:23:45.006Z,2.55
2023-02-05T00:26:14.196Z,3.22
2023-02-05T00:28:41.783Z,2.33
2023-02-05T00:31:10.556Z,2.42
2023-02-05T00:33:37.783Z,2.45
2023-02-05T00:36:05.142Z,3.03
2023-02-05T00:38:32.276Z,2.78
2023-02-05T00:40:59.473Z,2.90
2023-02-05T00:43:26.741Z,3.33
2023-02-05T00:45:53.901Z,3.88
2023-02-05T00:48:21.102Z,2.75
2023-02-05T00:50:49.626Z,2.92
2023-02-05T00:53:16.769Z,2.65
2023-02-05T00:55:43.901Z,2.92
2023-02-05T00:58:11.667Z,3.10
2023-02-05T01:00:39.036Z,2.58
2023-02-05T01:03:06.563Z,2.90
2023-02-05T01:05:37.786Z,2.63
2023-02-05T01:08:05.530Z,3.22
2023-02-05T01:10:32.801Z,3.03
2023-02-05T01:13:00.098Z,3.58
2023-02-05T01:15:27.392Z,3.05
2023-02-05T01:17:54.542Z,2.97
2023-02-05T01:20:21.903Z,3.35
2023-02-05T01:22:49.433Z,3.40
2023-02-05T01:25:16.583Z,3.40
2023-02-05T01:27:43.833Z,3.35
2023-02-05T01:30:11.898Z,3.10
2023-02-05T01:32:40.698Z,3.25
2023-02-05T01:35:08.398Z,2.63
2023-02-05T01:37:35.661Z,3.03
2023-02-05T01:40:02.834Z,2.65
2023-02-05T01:42:30.652Z,3.17
2023-02-05T01:45:16.633Z,2.67
2023-02-05T01:47:43.844Z,3.50
2023-02-05T01:50:11.096Z,3.70
2023-02-05T01:52:38.253Z,3.50
2023-02-05T01:55:06.824Z,3.45
2023-02-05T01:57:34.082Z,2.88
2023-02-05T02:00:01.324Z,3.33
2023-02-05T02:02:30.497Z,3.10
2023-02-05T02:05:01.296Z,3.40
2023-02-05T02:07:28.442Z,2.47
2023-02-05T02:09:55.931Z,2.05
2023-02-05T02:12:29.023Z,3.00
2023-02-05T02:14:57.613Z,3.47
2023-02-05T02:17:25.775Z,3.10
2023-02-05T02:20:01.798Z,3.70
2023-02-05T02:22:47.422Z,2.88
2023-02-05T02:25:33.870Z,3.20
2023-02-05T02:28:16.509Z,3.28
2023-02-05T02:30:46.483Z,3.13
2023-02-05T02:33:16.421Z,3.55
2023-02-05T02:35:55.655Z,3.38
2023-02-05T02:38:28.732Z,3.28
2023-02-05T02:40:58.078Z,3.05
2023-02-05T02:43:31.594Z,3.22
2023-02-05T02:46:14.089Z,3.10
2023-02-05T02:48:42.296Z,3.38
2023-02-05T02:51:10.719Z,3.35
2023-02-05T02:53:40.706Z,2.70
2023-02-05T02:56:08.734Z,3.22
2023-02-05T02:58:41.220Z,3.20
2023-02-05T03:01:09.710Z,2.78
2023-02-05T03:03:38.920Z,3.10
2023-02-05T03:06:06.779Z,3.15
2023-02-05T03:08:52.636Z,2.85
2023-02-05T03:11:19.835Z,3.20
2023-02-05T03:13:47.241Z,3.17
2023-02-05T03:16:15.177Z,3.08
2023-02-05T03:18:42.878Z,3.42
2023-02-05T03:21:13.457Z,3.70
2023-02-05T03:23:40.910Z,3.75
2023-02-05T03:26:22.826Z,3.15
2023-02-05T03:28:49.987Z,3.35
2023-02-05T03:31:23.211Z,2.97
2023-02-05T03:34:09.272Z,3.88
2023-02-05T03:36:43.799Z,3.80
2023-02-05T03:39:28.746Z,3.80
2023-02-05T03:42:03.870Z,3.10
2023-02-05T03:44:37.055Z,3.58
2023-02-05T03:47:13.701Z,4.25
2023-02-05T03:49:58.668Z,3.65
2023-02-05T03:52:32.554Z,3.55
2023-02-05T03:55:22.981Z,3.28
2023-02-05T03:57:57.439Z,3.75
2023-02-05T04:00:25.459Z,3.75
2023-02-05T04:02:52.665Z,3.88
2023-02-05T04:05:22.955Z,3.47
2023-02-05T04:07:50.975Z,3.97
2023-02-05T04:10:18.646Z,3.72
2023-02-05T04:12:45.974Z,3.30
2023-02-05T04:15:13.158Z,3.90
2023-02-05T04:17:40.807Z,3.72
2023-02-05T04:20:08.774Z,3.42
2023-02-05T04:22:35.921Z,3.35
2023-02-05T04:25:03.071Z,3.75
2023-02-05T04:27:30.267Z,3.85
2023-02-05T04:29:57.695Z,3.92
2023-02-05T04:32:24.978Z,3.67
2023-02-05T04:34:52.250Z,3.92
2023-02-05T04:37:19.380Z,4.38
2023-02-05T04:39:47.577Z,4.28
2023-02-05T04:42:14.775Z,3.95
2023-02-05T04:44:41.946Z,4.18
2023-02-05T04:47:09.080Z,3.97
2023-02-05T04:49:36.394Z,4.05
2023-02-05T04:52:03.521Z,4.20
2023-02-05T04:54:31.646Z,4.43
2023-02-05T04:56:58.882Z,4.40
2023-02-05T04:59:26.323Z,3.90
2023-02-05T05:01:53.442Z,5.05
2023-02-05T05:04:20.611Z,3.72
2023-02-05T05:06:47.763Z,4.93
2023-02-05T05:09:14.872Z,4.05
2023-02-05T05:11:42.122Z,4.93
2023-02-05T05:14:09.387Z,5.40
2023-02-05T05:16:36.478Z,4.82
2023-02-05T05:19:03.693Z,4.50
2023-02-05T05:21:30.884Z,4.53
2023-02-05T05:23:57.991Z,4.78
2023-02-05T05:26:25.166Z,4.50
2023-02-05T05:28:58.400Z,4.93
2023-02-05T05:31:25.637Z,5.20
2023-02-05T05:33:52.932Z,4.43
2023-02-05T05:36:20.388Z,4.57
2023-02-05T05:38:47.579Z,3.88
2023-02-05T05:41:43.093Z,4.57
2023-02-05T05:44:10.413Z,5.22
2023-02-05T05:46:37.565Z,4.93
2023-02-05T05:49:04.958Z,5.55
2023-02-05T05:51:33.350Z,4.75
2023-02-05T05:54:00.749Z,5.28
2023-02-05T05:56:28.004Z,5.13
2023-02-05T05:58:55.244Z,5.38
2023-02-05T06:01:22.972Z,5.03
2023-02-05T06:03:50.442Z,4.95
2023-02-05T06:06:17.723Z,5.40
2023-02-05T06:08:45.026Z,5.20
2023-02-05T06:11:12.358Z,5.15
2023-02-05T06:13:40.079Z,5.13
2023-02-05T06:16:07.399Z,5.22
2023-02-05T06:18:34.599Z,5.05
2023-02-05T06:21:03.288Z,4.97
2023-02-05T06:23:30.416Z,5.43
2023-02-05T06:25:57.595Z,4.93
2023-02-05T06:28:25.105Z,4.53
2023-02-05T06:30:52.345Z,5.45
2023-02-05T06:33:19.534Z,4.53
2023-02-05T06:35:47.367Z,4.70
2023-02-05T06:38:14.620Z,5.30
2023-02-05T06:40:41.817Z,4.95
2023-02-05T06:43:09.050Z,5.03
2023-02-05T06:45:36.596Z,4.47
2023-02-05T06:48:04.016Z,5.78
2023-02-05T06:50:31.243Z,5.45
2023-02-05T06:52:58.424Z,5.68
2023-02-05T06:55:25.598Z,6.30
2023-02-05T06:57:52.823Z,5.13
2023-02-05T07:00:20.054Z,4.13
2023-02-05T07:02:47.335Z,5.22
2023-02-05T07:05:14.546Z,6.18
2023-02-05T07:07:41.722Z,6.13
2023-02-05T07:10:09.057Z,5.88
2023-02-05T07:12:36.252Z,5.45
2023-02-05T07:15:03.380Z,5.45
2023-02-05T07:17:30.534Z,5.03
2023-02-05T07:19:58.812Z,5.95
2023-02-05T07:22:26.497Z,6.15
2023-02-05T07:24:53.652Z,6.50
2023-02-05T07:27:20.907Z,6.60
2023-02-05T07:29:48.202Z,5.75
2023-02-05T07:32:15.353Z,6.18
2023-02-05T07:34:43.972Z,7.50
2023-02-05T07:37:14.368Z,5.90
2023-02-05T07:39:41.541Z,5.97
2023-02-05T07:42:08.780Z,5.95
2023-02-05T07:44:35.958Z,5.82
2023-02-05T07:47:03.116Z,6.57
2023-02-05T07:49:30.306Z,6.85
2023-02-05T07:51:57.430Z,6.50
2023-02-05T07:54:24.742Z,6.38
2023-02-05T07:56:51.925Z,5.85
2023-02-05T07:59:19.034Z,5.53
2023-02-05T08:01:46.201Z,6.93
2023-02-05T08:04:13.457Z,5.10
2023-02-05T08:06:40.629Z,5.25
2023-02-05T08:09:07.789Z,6.20
2023-02-05T08:11:34.997Z,6.30
2023-02-05T08:14:02.444Z,5.32
2023-02-05T08:16:29.670Z,5.57
2023-02-05T08:18:56.874Z,9.15
2023-02-05T08:21:24.750Z,6.18
2023-02-05T08:23:51.952Z,6.25
2023-02-05T08:26:19.659Z,6.10
2023-02-05T08:28:46.869Z,5.93
2023-02-05T08:31:15.544Z,6.22
2023-02-05T08:33:42.848Z,7.03
2023-02-05T08:36:10.447Z,6.25
2023-02-05T08:38:37.864Z,5.60
2023-02-05T08:41:14.795Z,5.65
2023-02-05T08:43:42.440Z,6.32
2023-02-05T08:46:09.935Z,6.05
2023-02-05T08:48:37.356Z,7.38
2023-02-05T08:51:04.794Z,6.78
2023-02-05T08:53:32.576Z,6.15
2023-02-05T08:56:01.082Z,5.90
2023-02-05T08:58:28.618Z,6.20
2023-02-05T09:01:02.937Z,6.82
2023-02-05T09:03:30.653Z,5.93
2023-02-05T09:05:58.357Z,6.50
2023-02-05T09:08:26.139Z,6.28
2023-02-05T09:10:53.327Z,5.68
2023-02-05T09:13:20.443Z,5.57
2023-02-05T09:15:48.807Z,5.70
2023-02-05T09:18:16.035Z,5.78
2023-02-05T09:20:43.831Z,5.80
2023-02-05T09:23:11.972Z,5.65
2023-02-05T09:25:39.665Z,6.60
2023-02-05T09:28:09.325Z,5.75
2023-02-05T09:30:37.610Z,6.80
2023-02-05T09:33:04.821Z,8.25
2023-02-05T09:35:33.001Z,6.15
2023-02-05T09:38:02.423Z,6.28
2023-02-05T09:40:48.348Z,6.40
2023-02-05T09:43:30.982Z,6.35
2023-02-05T09:46:10.343Z,5.72
2023-02-05T09:48:55.197Z,4.18
2023-02-05T09:51:33.767Z,5.68
2023-02-05T09:54:05.902Z,5.70
2023-02-05T09:56:34.868Z,5.95
2023-02-05T09:59:05.551Z,5.88
2023-02-05T10:01:40.741Z,6.35
2023-02-05T10:04:08.202Z,5.95
2023-02-05T10:07:10.944Z,6.57
2023-02-05T10:09:42.739Z,6.07
2023-02-05T10:12:16.412Z,6.53
2023-02-05T10:14:58.557Z,7.18
2023-02-05T10:17:41.191Z,7.15
2023-02-05T10:20:23.709Z,6.25
2023-02-05T10:23:09.373Z,5.82
2023-02-05T10:25:45.721Z,6.20
2023-02-05T10:28:29.175Z,6.75
2023-02-05T10:30:59.086Z,6.53
2023-02-05T10:33:39.149Z,7.15
2023-02-05T10:36:07.347Z,6.18
2023-02-05T10:38:37.327Z,6.35
2023-02-05T10:41:16.705Z,6.68
2023-02-05T10:43:46.303Z,6.22
2023-02-05T10:46:14.704Z,6.97
2023-02-05T10:48:51.806Z,7.53
2023-02-05T10:51:25.031Z,7.07
2023-02-05T10:53:52.876Z,6.13
2023-02-05T10:56:20.465Z,6.75
2023-02-05T10:58:47.961Z,7.03
2023-02-05T11:01:17.149Z,6.90
2023-02-05T11:03:50.532Z,6.22
2023-02-05T11:06:17.864Z,7.28
2023-02-05T11:08:45.193Z,6.55
2023-02-05T11:11:20.622Z,6.47
2023-02-05T11:14:01.837Z,6.90
2023-02-05T11:16:36.931Z,7.18
2023-02-05T11:19:04.546Z,5.70
2023-02-05T11:21:49.987Z,7.78
2023-02-05T11:24:25.282Z,7.22
2023-02-05T11:27:12.251Z,6.22
2023-02-05T11:29:42.064Z,6.55
2023-02-05T11:32:22.308Z,6.50
2023-02-05T11:34:49.590Z,6.28
2023-02-05T11:37:18.579Z,6.50
2023-02-05T11:39:47.221Z,7.10
2023-02-05T11:42:25.330Z,6.75
2023-02-05T11:44:59.591Z,6.70
2023-02-05T11:47:34.753Z,6.60
2023-02-05T11:50:02.508Z,5.85
2023-02-05T11:52:30.972Z,7.32
2023-02-05T11:54:58.196Z,6.30
2023-02-05T11:57:26.936Z,7.07
2023-02-05T11:59:58.358Z,7.40
